Time;durP1;ratioP1;P1;durP2;ratioP2;P2;SDS_P1;SDS_P2;PMS_P1;PMS_P2;Temp;Humidity;BMP_temperature;BMP_pressure;BME280_temperature;BME280_humidity;BME280_pressure;Samples;Min_cycle;Max_cycle;Signal;HPM_P1;HPM_P2
2022/04/19 00:01:56;;;;;;;23.40;11.60;;;;;;;4.26;50.99;98098.48;433171;1270;109043;-44
2022/04/19 00:12:04;;;;;;;24.60;10.90;;;;;;;4.18;51.01;98086.91;433084;1270;108466;-41
2022/04/19 00:22:12;;;;;;;21.70;11.90;;;;;;;4.12;51.18;98074.89;433084;1269;97398;-46
2022/04/19 00:32:20;;;;;;;20.70;11.20;;;;;;;4.08;51.48;98066.56;433120;1270;111007;-44
2022/04/19 00:42:26;;;;;;;23.30;12.20;;;;;;;3.98;51.71;98056.65;433145;1270;109046;-41
2022/04/19 00:52:35;;;;;;;34.30;13.10;;;;;;;3.92;51.87;98051.54;433106;1269;108866;-42
2022/04/19 01:02:42;;;;;;;24.60;13.40;;;;;;;3.87;52.02;98044.30;433271;1271;97993;-42
2022/04/19 01:23:14;;;;;;;28.50;12.80;;;;;;;3.74;52.43;98021.64;433863;1261;108285;-45
2022/04/19 01:43:29;;;;;;;32.50;12.50;;;;;;;3.52;53.14;98014.39;432986;1270;98584;-43
2022/04/19 01:53:37;;;;;;;24.90;12.60;;;;;;;3.50;53.43;98010.67;433099;1271;111217;-45
2022/04/19 02:03:44;;;;;;;27.00;13.10;;;;;;;3.46;53.69;98011.19;432930;1271;109091;-44
2022/04/19 02:13:51;;;;;;;22.60;12.20;;;;;;;3.47;53.86;98017.88;433114;1269;108841;-41
2022/04/19 02:34:06;;;;;;;23.20;11.90;;;;;;;3.49;54.11;98012.73;433139;1271;111525;-42
2022/04/19 02:44:14;;;;;;;23.30;12.10;;;;;;;3.49;54.35;98007.70;433244;1270;109232;-42
2022/04/19 02:54:22;;;;;;;23.50;11.90;;;;;;;3.49;54.43;98007.61;433320;1271;107811;-42
2022/04/19 03:04:29;;;;;;;29.30;13.10;;;;;;;3.47;54.65;98011.08;433393;1271;97778;-42
2022/04/19 03:14:37;;;;;;;23.60;13.50;;;;;;;3.40;54.75;98008.50;432929;1271;110643;-41
2022/04/19 03:35:28;;;;;;;28.50;12.80;;;;;;;3.31;55.24;97991.40;431875;1271;97523;-43
2022/04/19 03:45:35;;;;;;;29.30;13.90;;;;;;;3.33;55.48;97987.27;433926;1268;98093;-42
2022/04/19 03:55:42;;;;;;;41.50;20.70;;;;;;;3.39;55.64;97994.31;433594;1271;111227;-40
2022/04/19 04:05:49;;;;;;;40.40;18.30;;;;;;;3.25;55.68;97994.16;433934;1268;108689;-41
2022/04/19 04:15:56;;;;;;;27.30;13.40;;;;;;;3.21;56.09;97996.40;433684;1270;108812;-40
2022/04/19 04:26:04;;;;;;;22.10;12.40;;;;;;;3.33;56.19;98002.21;434027;1267;97384;-42
2022/04/19 04:56:44;;;;;;;13.40;8.20;;;;;;;4.00;58.06;98001.11;433967;1268;97577;-43
2022/04/19 05:06:52;;;;;;;11.00;7.10;;;;;;;4.33;58.40;97997.24;433576;1269;111254;-44
2022/04/19 05:16:59;;;;;;;8.70;5.00;;;;;;;4.34;59.09;97995.19;433567;1268;108887;-44
2022/04/19 05:27:07;;;;;;;12.50;6.70;;;;;;;4.53;59.54;98000.05;433891;1268;96600;-43
2022/04/19 05:37:14;;;;;;;19.10;9.20;;;;;;;4.86;59.99;97992.27;434082;1267;111039;-44
2022/04/19 05:47:21;;;;;;;15.10;9.00;;;;;;;4.74;60.92;97995.33;433613;1268;108680;-45
2022/04/19 05:57:28;;;;;;;9.50;5.00;;;;;;;4.87;62.51;97994.42;433896;1268;96622;-44
2022/04/19 06:07:43;;;;;;;11.90;7.30;;;;;;;5.85;62.16;97993.05;433584;1268;108890;-44
2022/04/19 06:17:50;;;;;;;12.70;7.70;;;;;;;6.34;61.92;97993.14;430017;1268;5377259;-41
2022/04/19 06:48:09;;;;;;;13.70;9.60;;;;;;;6.28;62.69;98003.27;433324;1268;97548;-44
2022/04/19 06:58:16;;;;;;;20.90;11.60;;;;;;;7.25;61.13;98000.23;433116;1268;96716;-42
2022/04/19 07:08:23;;;;;;;14.30;9.90;;;;;;;7.26;60.45;98007.42;433951;1268;110761;-43
2022/04/19 07:18:30;;;;;;;18.20;10.50;;;;;;;7.54;60.01;98005.67;433320;1268;109572;-42
2022/04/19 07:28:38;;;;;;;16.30;10.60;;;;;;;7.66;59.17;98005.98;433629;1268;109082;-44
2022/04/19 07:38:45;;;;;;;21.70;12.10;;;;;;;7.61;58.69;98012.10;433665;1268;97909;-45
2022/04/19 07:48:53;;;;;;;19.20;11.30;;;;;;;7.10;58.80;98020.82;433681;1268;111054;-44
2022/04/19 07:59:00;;;;;;;19.00;12.20;;;;;;;6.66;59.17;98034.59;433540;1269;108815;-42
2022/04/19 08:09:11;;;;;;;14.50;11.70;;;;;;;6.42;59.71;98051.48;433697;1268;108772;-45
2022/04/19 08:19:19;;;;;;;11.90;8.20;;;;;;;6.20;60.17;98060.09;433610;1268;96683;-47
2022/04/19 08:29:26;;;;;;;16.50;11.00;;;;;;;6.51;60.54;98064.13;433505;1268;111330;-42
2022/04/19 08:39:33;;;;;;;17.20;11.70;;;;;;;6.59;60.34;98067.57;433434;1270;108464;-46
2022/04/19 08:59:45;;;;;;;14.70;11.00;;;;;;;6.75;59.97;98084.65;433655;1268;97204;-43
2022/04/19 09:10:00;;;;;;;19.50;13.10;;;;;;;6.84;59.66;98089.58;433573;1268;110101;-42
2022/04/19 09:20:15;;;;;;;17.50;13.70;;;;;;;6.55;59.99;98105.95;433514;1268;108749;-41
2022/04/19 09:30:20;;;;;;;19.90;13.40;;;;;;;6.44;60.07;98115.88;433484;1268;107709;-44
2022/04/19 09:40:31;;;;;;;13.20;10.60;;;;;;;6.53;60.36;98122.61;433437;1268;97901;-42
2022/04/19 09:50:37;;;;;;;18.30;13.00;;;;;;;6.58;60.65;98124.19;433475;1268;111140;-43
2022/04/19 10:00:42;;;;;;;20.50;11.60;;;;;;;6.67;60.14;98130.79;434043;1267;108451;-41
2022/04/19 10:10:48;;;;;;;16.50;12.10;;;;;;;6.98;60.06;98134.27;433505;1271;97506;-44
2022/04/19 10:20:54;;;;;;;17.60;12.90;;;;;;;7.22;59.53;98136.43;433508;1268;97893;-41
2022/04/19 10:31:03;;;;;;;17.50;13.80;;;;;;;7.12;59.03;98142.09;433907;1267;111292;-46
2022/04/19 10:41:11;;;;;;;19.30;13.90;;;;;;;6.81;58.92;98155.87;434024;1267;108813;-41
2022/04/19 10:51:34;;;;;;;15.30;12.40;;;;;;;6.72;59.12;98164.80;434010;1266;108537;-43
2022/04/19 11:01:42;;;;;;;16.40;12.70;;;;;;;6.98;58.77;98171.11;434195;1268;97923;-45
2022/04/19 11:11:48;;;;;;;16.80;11.40;;;;;;;7.15;58.99;98178.02;433954;1267;111235;-45
2022/04/19 11:22:01;;;;;;;13.40;11.30;;;;;;;7.18;58.84;98185.59;434026;1267;109875;-42
2022/04/19 11:32:11;;;;;;;16.40;11.00;;;;;;;7.15;58.63;98189.59;434010;1267;108811;-41
2022/04/19 11:52:44;;;;;;;14.20;8.80;;;;;;;7.22;57.79;98195.50;434155;1267;111039;-40
2022/04/19 12:02:52;;;;;;;14.80;10.40;;;;;;;7.50;57.72;98203.64;434032;1267;108879;-42
2022/04/19 12:12:59;;;;;;;16.70;9.30;;;;;;;7.96;57.75;98204.29;433756;1267;108921;-41
2022/04/19 12:23:06;;;;;;;11.80;8.90;;;;;;;8.08;57.17;98209.02;433913;1267;98041;-45
2022/04/19 12:33:15;;;;;;;11.00;8.70;;;;;;;7.86;57.12;98208.77;433983;1267;110724;-45
2022/04/19 12:54:01;;;;;;;11.00;7.50;;;;;;;7.88;57.16;98209.98;434029;1267;108793;-43
2022/04/19 13:04:06;;;;;;;12.00;8.50;;;;;;;7.86;56.91;98214.76;433921;1267;97938;-42
2022/04/19 13:24:21;;;;;;;8.80;7.20;;;;;;;8.01;56.15;98219.48;433793;1267;108237;-43
2022/04/19 13:34:28;;;;;;;10.90;6.90;;;;;;;8.17;55.89;98219.52;433799;1267;108856;-44
2022/04/19 13:44:36;;;;;;;12.30;6.10;;;;;;;8.45;55.63;98216.11;433825;1267;97889;-41
2022/04/19 13:54:43;;;;;;;12.00;6.70;;;;;;;8.67;55.17;98219.98;433815;1267;110950;-41
2022/04/19 14:04:51;;;;;;;9.10;5.80;;;;;;;8.47;54.33;98219.00;434191;1267;108792;-42
2022/04/19 14:14:58;;;;;;;7.10;5.50;;;;;;;8.30;54.00;98223.04;433715;1267;108860;-41
2022/04/19 14:25:04;;;;;;;11.80;6.00;;;;;;;8.18;53.72;98229.56;433756;1267;98227;-43
2022/04/19 14:35:12;;;;;;;6.50;5.30;;;;;;;8.14;53.66;98238.36;433723;1267;111232;-43
2022/04/19 14:45:19;;;;;;;8.50;6.20;;;;;;;8.14;53.47;98240.96;433840;1267;107815;-41
2022/04/19 14:55:27;;;;;;;11.40;6.20;;;;;;;8.08;53.10;98252.38;433848;1267;108845;-41
2022/04/19 15:05:34;;;;;;;10.50;6.10;;;;;;;7.91;52.90;98258.39;433824;1267;97945;-45
2022/04/19 15:15:41;;;;;;;11.30;6.70;;;;;;;8.07;52.99;98269.77;434162;1267;111145;-44
2022/04/19 15:25:49;;;;;;;7.90;5.70;;;;;;;8.22;52.71;98273.51;433814;1267;107792;-42
2022/04/19 15:35:56;;;;;;;9.70;6.00;;;;;;;8.11;52.04;98275.19;434198;1268;108667;-41
2022/04/19 15:46:03;;;;;;;7.40;5.50;;;;;;;7.84;51.93;98271.11;433713;1267;97913;-44
2022/04/19 15:56:10;;;;;;;8.10;6.10;;;;;;;7.85;51.88;98270.86;434123;1265;111102;-45
2022/04/19 16:06:16;;;;;;;7.40;5.40;;;;;;;7.74;51.08;98277.98;434211;1268;108561;-43
2022/04/19 16:26:49;;;;;;;9.90;6.30;;;;;;;7.61;51.43;98284.65;433829;1267;97478;-44
2022/04/19 16:47:03;;;;;;;6.80;5.60;;;;;;;7.47;51.27;98292.71;433770;1267;108773;-42
2022/04/19 16:57:10;;;;;;;5.80;5.10;;;;;;;7.35;51.50;98298.54;433774;1267;108760;-43
2022/04/19 17:07:18;;;;;;;8.80;5.50;;;;;;;7.16;51.50;98308.39;434052;1267;97388;-45
2022/04/19 17:17:25;;;;;;;10.90;6.10;;;;;;;6.95;51.88;98322.21;433691;1267;111489;-41
2022/04/19 17:27:32;;;;;;;11.50;6.80;;;;;;;6.69;52.06;98327.92;433795;1267;108959;-41
2022/04/19 17:37:40;;;;;;;11.10;7.20;;;;;;;6.39;52.46;98342.73;433696;1267;108700;-44
2022/04/19 17:47:47;;;;;;;20.20;9.30;;;;;;;6.01;52.79;98357.24;434171;1267;97471;-42
2022/04/19 17:57:54;;;;;;;27.80;13.10;;;;;;;5.72;53.09;98363.95;434296;1267;97903;-43
2022/04/19 18:08:06;;;;;;;28.30;14.50;;;;;;;5.43;53.48;98371.94;433792;1267;110679;-44
2022/04/19 18:18:13;;;;;;;26.20;14.50;;;;;;;5.18;53.94;98383.84;429973;1267;5757601;-45
2022/04/19 18:28:25;;;;;;;49.60;15.90;;;;;;;4.88;54.49;98399.16;434257;1267;98052;-44
2022/04/19 18:38:34;;;;;;;31.80;15.90;;;;;;;4.47;55.15;98407.02;434274;1267;97587;-41
2022/04/19 18:48:42;;;;;;;37.10;18.00;;;;;;;4.10;55.64;98415.06;433777;1267;111062;-43
2022/04/19 18:58:49;;;;;;;33.30;18.20;;;;;;;3.74;56.29;98418.63;434389;1267;108310;-40
2022/04/19 19:08:56;;;;;;;21.90;14.80;;;;;;;3.38;56.69;98425.35;433835;1266;109303;-42
2022/04/19 19:29:12;;;;;;;90.40;38.50;;;;;;;3.06;57.90;98445.84;434230;1267;108747;-42
2022/04/19 19:39:20;;;;;;;101.00;41.70;;;;;;;2.87;58.30;98449.12;433662;1267;108798;-44
2022/04/19 19:49:27;;;;;;;132.70;55.00;;;;;;;2.62;58.64;98456.17;434290;1267;97030;-42
2022/04/19 19:59:34;;;;;;;111.20;49.40;;;;;;;2.24;59.06;98455.52;433719;1267;111100;-44
2022/04/19 20:09:42;;;;;;;139.60;51.90;;;;;;;2.00;59.84;98463.02;434312;1268;109014;-41
2022/04/19 20:19:48;;;;;;;141.90;58.20;;;;;;;1.78;59.93;98461.73;433687;1267;108833;-43
2022/04/19 20:29:55;;;;;;;224.90;82.30;;;;;;;1.70;60.35;98458.38;434214;1267;97939;-42
2022/04/19 20:40:03;;;;;;;146.80;62.30;;;;;;;1.71;60.99;98457.02;434290;1267;108769;-40
2022/04/19 21:10:30;;;;;;;228.90;87.00;;;;;;;0.95;61.80;98454.77;434212;1267;111243;-40
2022/04/19 21:20:37;;;;;;;209.50;79.70;;;;;;;0.79;62.41;98456.54;434266;1268;108884;-44
2022/04/19 21:30:44;;;;;;;181.30;68.40;;;;;;;0.71;62.74;98461.78;433391;1267;108672;-43
2022/04/19 21:40:52;;;;;;;114.90;51.80;;;;;;;0.58;62.69;98465.48;434296;1268;97903;-45
2022/04/19 21:50:59;;;;;;;92.00;44.50;;;;;;;0.62;63.21;98471.64;433574;1267;111084;-45
2022/04/19 22:01:20;;;;;;;94.20;43.30;;;;;;;0.71;63.72;98475.02;434170;1267;108681;-42
2022/04/19 22:11:28;;;;;;;144.20;61.70;;;;;;;0.63;63.67;98472.91;434164;1268;97947;-44
2022/04/19 22:21:35;;;;;;;133.80;57.50;;;;;;;0.41;64.07;98477.39;434037;1268;111037;-42
2022/04/19 22:31:42;;;;;;;119.30;53.60;;;;;;;0.17;64.17;98470.16;434337;1268;108794;-44
2022/04/19 22:41:50;;;;;;;109.60;51.40;;;;;;;0.05;64.91;98463.90;433885;1267;108661;-45
2022/04/19 22:51:57;;;;;;;93.90;45.70;;;;;;;0.03;65.08;98450.27;434199;1267;97560;-42
2022/04/19 23:12:11;;;;;;;63.70;32.40;;;;;;;0.13;65.26;98442.71;433880;1267;109286;-44
2022/04/19 23:22:19;;;;;;;63.80;32.10;;;;;;;0.04;65.71;98440.81;433722;1267;97993;-43
2022/04/19 23:32:26;;;;;;;61.70;28.90;;;;;;;-0.00;65.97;98442.98;433856;1267;111116;-46
2022/04/19 23:42:33;;;;;;;55.00;25.60;;;;;;;-0.13;66.27;98433.83;433764;1267;108790;-42
2022/04/19 23:52:40;;;;;;;42.10;22.10;;;;;;;-0.29;66.38;98427.88;433841;1267;108928;-44
